Time;durP1;ratioP1;P1;durP2;ratioP2;P2;SDS_P1;SDS_P2;PMS_P1;PMS_P2;Temp;Humidity;BMP_temperature;BMP_pressure;BME280_temperature;BME280_humidity;BME280_pressure;Samples;Min_cycle;Max_cycle;Signal;HPM_P1;HPM_P2
2024/03/08 00:01:00;;;;;;;11.00;3.53;;;;;;;12.04;100.00;101282.28;10497024;28;20059;-82
2024/03/08 00:06:22;;;;;;;17.30;4.22;;;;;;;11.85;100.00;101286.38;10484940;28;20048;-82
2024/03/08 00:11:45;;;;;;;10.48;4.05;;;;;;;11.71;100.00;101278.13;10476449;28;20048;-82
2024/03/08 00:17:09;;;;;;;18.73;4.45;;;;;;;11.78;100.00;101282.72;10495196;28;20052;-82
2024/03/08 00:22:33;;;;;;;13.88;4.70;;;;;;;11.80;100.00;101277.47;10494701;28;20048;-82
2024/03/08 00:27:57;;;;;;;9.85;4.60;;;;;;;11.79;100.00;101265.97;10494279;28;20071;-81
2024/03/08 00:33:27;;;;;;;17.85;11.75;;;;;;;11.73;100.00;101257.91;10481254;28;20059;-81
2024/03/08 00:38:54;;;;;;;11.68;5.47;;;;;;;11.50;100.00;101246.88;10493609;28;20052;-81
2024/03/08 00:44:18;;;;;;;15.23;5.57;;;;;;;11.31;100.00;101236.78;10480517;28;20041;-81
2024/03/08 00:49:44;;;;;;;11.60;5.05;;;;;;;11.12;100.00;101235.53;10494398;28;20676;-81
2024/03/08 00:55:10;;;;;;;17.35;8.95;;;;;;;11.01;100.00;101237.06;10491637;28;20056;-80
2024/03/08 01:00:33;;;;;;;12.50;6.28;;;;;;;10.82;100.00;101224.31;10493769;28;20053;-81
2024/03/08 01:06:01;;;;;;;14.02;6.85;;;;;;;10.81;100.00;101224.28;10480677;28;20056;-81
2024/03/08 01:11:24;;;;;;;10.57;5.63;;;;;;;11.07;100.00;101205.50;10498063;28;20688;-82
2024/03/08 01:16:47;;;;;;;14.30;7.88;;;;;;;11.16;100.00;101210.94;10521288;28;20053;-81
2024/03/08 01:22:12;;;;;;;17.13;10.98;;;;;;;11.17;100.00;101219.75;10519438;28;20575;-81
2024/03/08 01:27:35;;;;;;;8.85;6.22;;;;;;;11.38;100.00;101220.19;10493075;28;20147;-82
2024/03/08 01:32:57;;;;;;;5.22;3.50;;;;;;;11.62;100.00;101235.63;10492885;28;20358;-82
2024/03/08 01:38:22;;;;;;;6.68;2.92;;;;;;;11.61;100.00;101223.28;10491628;28;20114;-82
2024/03/08 01:43:45;;;;;;;6.05;2.70;;;;;;;11.67;100.00;101215.47;10478747;28;20047;-81
2024/03/08 01:49:08;;;;;;;6.75;3.70;;;;;;;11.67;100.00;101220.75;10471198;28;20071;-81
2024/03/08 01:54:32;;;;;;;4.03;3.15;;;;;;;11.49;100.00;101231.88;10477410;28;20056;-81
2024/03/08 01:59:56;;;;;;;7.03;3.70;;;;;;;11.83;100.00;101220.19;10490378;28;20052;-81
2024/03/08 02:05:20;;;;;;;7.47;6.20;;;;;;;11.96;100.00;101224.84;10491953;28;20511;-81
2024/03/08 02:10:46;;;;;;;8.63;4.50;;;;;;;12.10;100.00;101224.19;10504803;28;20056;-81
2024/03/08 02:16:09;;;;;;;6.22;2.80;;;;;;;12.31;100.00;101220.13;10476121;28;20060;-81
2024/03/08 02:21:33;;;;;;;7.50;2.90;;;;;;;12.39;100.00;101233.50;10487458;28;20041;-81
2024/03/08 02:26:57;;;;;;;9.10;3.33;;;;;;;12.30;100.00;101239.53;10490571;28;20083;-81
2024/03/08 02:32:20;;;;;;;7.35;3.00;;;;;;;12.28;100.00;101235.94;10517088;28;20058;-81
2024/03/08 02:37:48;;;;;;;9.15;4.28;;;;;;;12.22;100.00;101235.84;10475795;28;20049;-80
2024/03/08 02:43:14;;;;;;;8.38;4.15;;;;;;;11.94;100.00;101239.81;10504329;28;20044;-81
2024/03/08 02:48:37;;;;;;;8.45;4.28;;;;;;;11.90;100.00;101243.25;10476320;28;20053;-81
2024/03/08 02:54:03;;;;;;;8.70;3.00;;;;;;;11.65;100.00;101240.09;10475675;28;20056;-80
2024/03/08 02:59:27;;;;;;;6.88;2.92;;;;;;;11.33;100.00;101242.13;10453534;28;20080;-81
2024/03/08 03:04:49;;;;;;;9.02;3.55;;;;;;;11.03;100.00;101247.63;10493548;28;20451;-81
2024/03/08 03:10:16;;;;;;;6.85;3.13;;;;;;;10.81;100.00;101248.03;10496691;28;20051;-81
2024/03/08 03:15:41;;;;;;;8.55;3.42;;;;;;;10.61;100.00;101243.22;10497952;28;20040;-81
2024/03/08 03:21:07;;;;;;;5.90;3.10;;;;;;;10.51;100.00;101258.78;10487109;28;20136;-81
2024/03/08 03:26:33;;;;;;;5.82;2.92;;;;;;;10.40;100.00;101258.53;10506420;28;20510;-81
2024/03/08 03:31:56;;;;;;;8.10;3.00;;;;;;;10.50;100.00;101257.03;10467161;28;20148;-81
2024/03/08 03:37:19;;;;;;;11.43;3.15;;;;;;;10.56;100.00;101257.16;10496488;28;20048;-81
2024/03/08 03:42:45;;;;;;;7.18;2.75;;;;;;;10.58;100.00;101252.78;10496819;28;20605;-80
2024/03/08 03:48:09;;;;;;;4.55;2.85;;;;;;;10.93;100.00;101257.13;10479702;28;20128;-80
2024/03/08 03:53:32;;;;;;;6.72;2.72;;;;;;;11.04;100.00;101254.72;10481120;28;20692;-82
2024/03/08 03:58:56;;;;;;;7.55;2.95;;;;;;;10.74;100.00;101257.59;10495432;28;20049;-81
2024/03/08 04:04:18;;;;;;;8.27;3.58;;;;;;;10.53;100.00;101249.16;10488895;28;20060;-82
2024/03/08 04:09:41;;;;;;;7.75;3.05;;;;;;;10.31;100.00;101258.28;10495040;28;20522;-81
2024/03/08 04:15:07;;;;;;;8.00;3.00;;;;;;;10.26;100.00;101260.84;10494486;28;20040;-80
2024/03/08 04:20:30;;;;;;;8.50;3.17;;;;;;;10.26;100.00;101254.66;10494854;28;20515;-80
2024/03/08 04:25:53;;;;;;;7.43;3.25;;;;;;;10.25;100.00;101259.03;10472286;28;20588;-80
2024/03/08 04:31:17;;;;;;;7.43;3.50;;;;;;;10.23;100.00;101266.06;10492869;28;20110;-81
2024/03/08 04:36:39;;;;;;;10.68;3.30;;;;;;;10.25;100.00;101268.69;10493687;28;20053;-83
2024/03/08 04:42:06;;;;;;;5.63;3.00;;;;;;;10.16;100.00;101274.63;10494999;28;20089;-82
2024/03/08 04:47:30;;;;;;;7.40;3.30;;;;;;;10.14;100.00;101262.25;10508880;28;20041;-81
2024/03/08 04:52:57;;;;;;;12.10;7.38;;;;;;;10.22;100.00;101264.25;10503479;28;20060;-81
2024/03/08 04:58:20;;;;;;;10.27;5.90;;;;;;;10.19;100.00;101263.28;10506365;28;20130;-81
2024/03/08 05:03:45;;;;;;;5.75;2.90;;;;;;;10.32;100.00;101258.34;10490926;28;20380;-81
2024/03/08 05:09:13;;;;;;;33.40;24.35;;;;;;;10.60;100.00;101264.28;10478953;28;20059;-81
2024/03/08 05:14:37;;;;;;;5.20;3.22;;;;;;;13.07;100.00;101263.63;10492235;28;20398;-81
2024/03/08 05:20:03;;;;;;;5.15;2.08;;;;;;;14.96;100.00;101250.47;10477252;28;20076;-81
2024/03/08 05:25:26;;;;;;;3.75;2.20;;;;;;;16.52;100.00;101244.63;10477167;28;20102;-81
2024/03/08 05:30:49;;;;;;;3.83;2.00;;;;;;;17.29;100.00;101245.34;10506313;28;20040;-82
2024/03/08 05:36:15;;;;;;;3.33;1.90;;;;;;;18.72;100.00;101242.59;10492210;28;20052;-82
2024/03/08 05:41:37;;;;;;;4.70;1.65;;;;;;;19.49;97.11;101247.06;10481792;28;20048;-81
2024/03/08 05:47:00;;;;;;;2.03;1.40;;;;;;;19.70;89.91;101237.88;10477958;28;20571;-82
2024/03/08 05:52:24;;;;;;;5.85;2.00;;;;;;;19.78;81.88;101235.09;10492105;28;20064;-82
2024/03/08 05:57:49;;;;;;;7.30;1.65;;;;;;;20.36;72.26;101228.81;10477397;28;20508;-83
2024/03/08 06:03:12;;;;;;;4.18;1.45;;;;;;;20.85;66.45;101244.94;10500516;28;20439;-82
2024/03/08 06:08:36;;;;;;;2.13;1.23;;;;;;;22.91;55.93;101244.69;10489353;28;20048;-82
2024/03/08 06:13:59;;;;;;;3.25;1.40;;;;;;;24.19;48.77;101258.84;10490436;28;20043;-82
2024/03/08 06:19:22;;;;;;;4.47;3.08;;;;;;;25.65;46.22;101266.28;10490583;28;20051;-84
2024/03/08 06:24:47;;;;;;;3.35;1.38;;;;;;;26.93;42.15;101268.19;10490117;28;20041;-83
2024/03/08 06:30:10;;;;;;;7.68;3.10;;;;;;;27.53;40.38;101270.94;10476562;28;20068;-84
2024/03/08 06:35:33;;;;;;;4.55;3.45;;;;;;;27.94;37.37;101264.44;10489240;28;20384;-84
2024/03/08 06:40:58;;;;;;;4.53;2.00;;;;;;;28.44;36.13;101275.53;10499205;28;20048;-87
2024/03/08 06:46:20;;;;;;;5.88;2.88;;;;;;;29.34;33.09;101281.78;10498789;28;20068;-86
2024/03/08 06:51:46;;;;;;;3.00;1.17;;;;;;;29.70;31.60;101292.47;10509312;28;20090;-85
2024/03/08 06:57:11;;;;;;;5.32;2.25;;;;;;;29.78;30.82;101278.44;10485378;28;20504;-86
2024/03/08 07:02:35;;;;;;;2.95;1.30;;;;;;;30.13;29.77;101301.00;10512894;28;20063;-86
2024/03/08 07:08:00;;;;;;;6.25;3.20;;;;;;;30.92;29.37;101297.19;10510446;28;20059;-87
2024/03/08 07:13:27;;;;;;;6.45;1.75;;;;;;;30.79;28.70;101304.34;10520635;28;20056;-86
2024/03/08 07:18:52;;;;;;;6.20;2.90;;;;;;;30.29;28.18;101300.00;10468918;28;20060;-87
2024/03/08 07:24:32;;;;;;;5.40;3.00;;;;;;;30.88;27.60;101304.69;10479098;28;20041;-85
2024/03/08 07:29:58;;;;;;;3.97;2.25;;;;;;;32.06;26.45;101300.94;10512783;28;20040;-89
2024/03/08 07:35:26;;;;;;;8.48;3.80;;;;;;;32.21;25.69;101302.69;10479909;28;20161;-83
2024/03/08 07:40:53;;;;;;;6.05;2.67;;;;;;;32.92;24.82;101301.56;10482760;28;20129;-83
2024/03/08 07:46:18;;;;;;;7.10;2.70;;;;;;;32.79;24.67;101304.28;10520766;28;20045;-83
2024/03/08 07:51:41;;;;;;;5.43;2.05;;;;;;;33.30;23.34;101286.09;10478865;28;20048;-82
2024/03/08 07:57:04;;;;;;;4.00;2.40;;;;;;;33.67;23.11;101297.16;10481287;28;20048;-83
2024/03/08 08:02:28;;;;;;;8.75;4.60;;;;;;;34.58;22.52;101294.00;10493729;28;20573;-83
2024/03/08 08:07:52;;;;;;;4.00;1.38;;;;;;;35.00;22.29;101299.91;10509458;28;20048;-82
2024/03/08 08:13:17;;;;;;;4.97;1.90;;;;;;;35.84;21.82;101303.22;10505225;28;20048;-81
2024/03/08 08:18:42;;;;;;;4.30;1.70;;;;;;;36.69;21.14;101295.25;10494216;28;20044;-81
2024/03/08 08:24:04;;;;;;;6.38;2.50;;;;;;;37.06;20.59;101298.44;10506790;28;20056;-81
2024/03/08 08:29:28;;;;;;;3.35;0.90;;;;;;;36.40;19.89;101299.56;10494162;28;20052;-81
2024/03/08 08:34:52;;;;;;;6.90;2.22;;;;;;;36.36;20.20;101298.06;10478159;28;20045;-83
2024/03/08 08:40:17;;;;;;;3.00;1.50;;;;;;;36.70;20.57;101294.22;10493703;28;20606;-79
2024/03/08 08:45:39;;;;;;;5.55;1.25;;;;;;;36.98;19.83;101296.34;10479288;28;20553;-81
2024/03/08 08:51:06;;;;;;;6.93;2.55;;;;;;;35.55;20.43;101294.59;10519905;28;20048;-81
2024/03/08 08:56:29;;;;;;;5.72;1.80;;;;;;;36.10;20.46;101294.72;10459059;28;20492;-79
2024/03/08 09:01:53;;;;;;;20.85;10.80;;;;;;;36.07;20.08;101298.59;10503718;28;20602;-81
2024/03/08 09:07:18;;;;;;;4.10;1.60;;;;;;;35.03;20.64;101291.44;10443532;28;20128;-80
2024/03/08 09:12:41;;;;;;;2.30;0.90;;;;;;;35.30;20.70;101297.56;10472277;28;20052;-80
2024/03/08 09:18:05;;;;;;;8.02;1.50;;;;;;;36.04;20.39;101295.22;10487353;28;20037;-80
2024/03/08 09:23:30;;;;;;;5.55;1.35;;;;;;;36.25;20.00;101299.84;10499076;28;20097;-79
2024/03/08 09:28:54;;;;;;;3.88;0.93;;;;;;;35.10;20.88;101292.72;10514555;28;20036;-83
2024/03/08 09:34:16;;;;;;;4.65;1.38;;;;;;;35.54;20.47;101294.69;10478929;28;20079;-83
2024/03/08 09:39:42;;;;;;;2.67;0.80;;;;;;;35.65;20.48;101294.69;10503204;28;20106;-80
2024/03/08 09:45:10;;;;;;;2.15;1.00;;;;;;;36.25;20.06;101304.47;10489939;28;20396;-82
2024/03/08 09:50:33;;;;;;;7.47;1.40;;;;;;;36.72;19.55;101292.22;10520870;28;20485;-81
2024/03/08 09:55:59;;;;;;;5.28;2.88;;;;;;;35.99;20.29;101290.09;10519118;28;20076;-82
2024/03/08 10:01:22;;;;;;;5.07;1.60;;;;;;;35.13;20.67;101289.72;10496668;28;20052;-80
2024/03/08 10:06:47;;;;;;;5.43;1.88;;;;;;;30.87;24.16;101283.84;10491422;28;20497;-83
2024/03/08 10:12:12;;;;;;;2.60;1.50;;;;;;;31.36;23.49;101285.44;10477476;28;20055;-79
2024/03/08 10:17:36;;;;;;;4.85;1.20;;;;;;;32.76;22.32;101280.72;10528602;28;20070;-79
2024/03/08 10:22:58;;;;;;;6.25;1.67;;;;;;;34.45;20.63;101278.59;10495914;28;20048;-80
2024/03/08 10:28:24;;;;;;;4.65;1.15;;;;;;;33.89;21.54;101273.59;10485115;28;20098;-81
2024/03/08 10:33:47;;;;;;;5.63;1.10;;;;;;;34.12;21.77;101271.00;10529617;28;20044;-81
2024/03/08 10:39:22;;;;;;;4.70;1.33;;;;;;;33.86;22.49;101265.59;10510188;27;20468;-79
2024/03/08 10:44:54;;;;;;;5.90;1.25;;;;;;;33.57;23.75;101272.28;10522084;28;20527;-80
2024/03/08 10:50:21;;;;;;;5.15;1.00;;;;;;;33.49;23.55;101275.56;10497494;28;20052;-81
2024/03/08 10:55:45;;;;;;;3.72;1.15;;;;;;;31.56;24.55;101268.69;10497888;28;20112;-80
2024/03/08 11:01:10;;;;;;;4.13;1.00;;;;;;;30.36;27.08;101273.28;10495254;28;20056;-78
2024/03/08 11:06:45;;;;;;;6.57;1.33;;;;;;;30.72;27.81;101264.81;10494950;28;20647;-80
2024/03/08 11:12:22;;;;;;;9.38;1.77;;;;;;;29.90;29.53;101256.84;10514258;28;20056;-79
2024/03/08 11:17:50;;;;;;;9.10;1.27;;;;;;;29.25;31.03;101250.47;10495533;28;20051;-80
2024/03/08 11:23:12;;;;;;;5.68;1.40;;;;;;;28.70;31.52;101267.91;10468665;28;20047;-78
2024/03/08 11:28:35;;;;;;;5.55;1.33;;;;;;;26.78;34.12;101255.28;10494647;28;20590;-78
2024/03/08 11:33:59;;;;;;;5.78;1.38;;;;;;;26.18;35.76;101247.91;10481873;28;20571;-79
2024/03/08 11:39:22;;;;;;;5.28;1.60;;;;;;;25.44;36.96;101257.13;10500446;28;20048;-80
2024/03/08 11:44:44;;;;;;;3.65;1.40;;;;;;;24.95;38.05;101258.94;10482121;28;20574;-79
2024/03/08 11:50:12;;;;;;;6.15;1.58;;;;;;;24.53;38.68;101249.63;10495434;28;20056;-80
2024/03/08 11:55:35;;;;;;;6.63;2.35;;;;;;;24.53;38.53;101252.31;10513691;28;20048;-81
2024/03/08 12:01:05;;;;;;;4.45;1.48;;;;;;;24.84;38.36;101246.72;10494717;28;20086;-80
2024/03/08 12:06:39;;;;;;;5.03;1.38;;;;;;;24.56;38.81;101246.78;10457794;28;20171;-80
2024/03/08 12:12:03;;;;;;;4.70;1.10;;;;;;;25.00;38.80;101250.69;10494180;28;20126;-80
2024/03/08 12:17:25;;;;;;;3.70;1.10;;;;;;;24.93;38.39;101251.84;10479756;28;20044;-81
2024/03/08 12:22:52;;;;;;;6.13;1.35;;;;;;;24.74;39.44;101248.88;10507584;28;20051;-80
2024/03/08 12:28:15;;;;;;;5.03;1.10;;;;;;;24.97;39.09;101245.38;10479738;28;20060;-79
2024/03/08 12:33:38;;;;;;;6.07;1.25;;;;;;;25.23;38.90;101242.59;10478878;28;20512;-79
2024/03/08 12:39:03;;;;;;;2.53;1.00;;;;;;;24.77;39.12;101247.88;10477575;28;20053;-79
2024/03/08 12:44:28;;;;;;;6.82;1.80;;;;;;;24.17;40.40;101257.09;10506400;28;20045;-81
2024/03/08 12:49:50;;;;;;;4.95;1.20;;;;;;;23.58;40.74;101254.44;10492618;28;20106;-79
2024/03/08 12:55:16;;;;;;;5.82;1.20;;;;;;;23.71;40.88;101265.75;10490508;28;20522;-81
2024/03/08 13:00:42;;;;;;;5.63;1.20;;;;;;;23.17;41.85;101257.47;10477604;28;20515;-81
2024/03/08 13:06:08;;;;;;;2.80;1.05;;;;;;;23.23;41.96;101259.97;10452023;28;20134;-82
2024/03/08 13:11:40;;;;;;;4.90;1.13;;;;;;;23.18;42.03;101264.59;10513683;28;20057;-81
2024/03/08 13:17:04;;;;;;;5.70;1.73;;;;;;;23.18;42.66;101259.19;10481874;28;20045;-81
2024/03/08 13:22:28;;;;;;;5.75;1.20;;;;;;;23.52;42.06;101259.13;10475727;28;20455;-80
2024/03/08 13:27:54;;;;;;;3.30;1.20;;;;;;;23.57;42.09;101259.88;10506940;28;20048;-79
2024/03/08 13:33:17;;;;;;;4.55;1.02;;;;;;;23.75;42.72;101252.13;10443400;28;20094;-80
2024/03/08 13:38:42;;;;;;;5.80;1.30;;;;;;;24.01;41.42;101262.09;10476146;28;20075;-83
2024/03/08 13:44:06;;;;;;;3.17;1.30;;;;;;;23.42;42.25;101256.69;10451039;28;20107;-82
2024/03/08 13:49:29;;;;;;;3.50;1.30;;;;;;;23.23;42.76;101257.28;10504732;28;20044;-80
2024/03/08 13:54:51;;;;;;;7.60;1.42;;;;;;;23.01;43.28;101257.00;10475083;28;20075;-81
2024/03/08 14:00:17;;;;;;;4.05;1.20;;;;;;;22.47;44.29;101253.91;10490549;28;20049;-79
2024/03/08 14:05:41;;;;;;;8.13;2.58;;;;;;;22.04;45.06;101255.00;10471128;28;20575;-79
2024/03/08 14:11:12;;;;;;;10.52;1.17;;;;;;;21.96;45.70;101254.28;10510505;28;20144;-80
2024/03/08 14:16:37;;;;;;;3.15;1.20;;;;;;;21.75;47.02;101254.72;10489696;28;20056;-78
2024/03/08 14:21:59;;;;;;;7.97;3.08;;;;;;;21.13;48.71;101256.94;10487266;28;20043;-78
2024/03/08 14:27:22;;;;;;;4.60;2.10;;;;;;;20.88;49.39;101266.34;10475359;28;20145;-79
2024/03/08 14:32:46;;;;;;;12.45;7.88;;;;;;;20.72;49.66;101267.56;10475534;28;20048;-79
2024/03/08 14:38:10;;;;;;;6.43;2.70;;;;;;;20.61;51.55;101265.94;10488954;28;20453;-78
2024/03/08 14:43:33;;;;;;;7.70;3.60;;;;;;;20.19;54.55;101263.94;10488682;28;20052;-78
2024/03/08 14:48:57;;;;;;;3.63;1.60;;;;;;;19.90;58.18;101267.94;10475130;28;20044;-80
2024/03/08 14:54:22;;;;;;;5.63;1.60;;;;;;;19.57;60.65;101276.44;10517749;28;20052;-79
2024/03/08 14:59:45;;;;;;;4.32;1.20;;;;;;;19.29;62.98;101272.31;10491283;28;20106;-78
2024/03/08 15:05:11;;;;;;;7.90;1.70;;;;;;;18.98;66.58;101275.34;10525020;28;20045;-78
2024/03/08 15:10:33;;;;;;;5.22;1.08;;;;;;;18.87;68.07;101285.28;10495031;28;20523;-78
2024/03/08 15:15:56;;;;;;;5.20;1.38;;;;;;;18.59;69.75;101283.75;10524204;28;20045;-78
2024/03/08 15:21:20;;;;;;;10.55;2.60;;;;;;;18.29;73.45;101295.56;10442863;28;20055;-78
2024/03/08 15:26:44;;;;;;;6.82;3.42;;;;;;;18.11;75.58;101293.91;10495072;28;20130;-78
2024/03/08 15:32:09;;;;;;;5.15;2.00;;;;;;;18.04;79.64;101293.97;10524157;28;20147;-80
2024/03/08 15:37:33;;;;;;;5.68;1.52;;;;;;;18.00;80.60;101287.72;10495790;28;20044;-79
2024/03/08 15:42:59;;;;;;;6.03;1.90;;;;;;;17.73;83.46;101310.13;10481979;28;20059;-78
2024/03/08 15:48:22;;;;;;;3.75;1.90;;;;;;;17.50;87.12;101314.69;10495090;28;20055;-79
2024/03/08 15:53:52;;;;;;;3.30;1.13;;;;;;;17.31;88.84;101310.28;10494417;28;20144;-78
2024/03/08 15:59:15;;;;;;;4.72;1.20;;;;;;;17.13;90.10;101319.25;10459536;28;20600;-79
2024/03/08 16:04:38;;;;;;;5.60;2.58;;;;;;;17.09;90.02;101321.03;10477047;28;20041;-78
2024/03/08 16:10:02;;;;;;;6.35;2.50;;;;;;;16.74;92.52;101330.84;10474417;28;20036;-78
2024/03/08 16:15:25;;;;;;;12.65;5.60;;;;;;;16.46;96.08;101334.38;10475209;28;20619;-78
2024/03/08 16:20:48;;;;;;;14.85;11.32;;;;;;;16.24;98.62;101339.66;10475427;28;20041;-78
2024/03/08 16:26:13;;;;;;;8.55;4.50;;;;;;;16.00;99.95;101344.94;10493008;28;20063;-78
2024/03/08 16:31:37;;;;;;;10.73;4.47;;;;;;;15.89;97.19;101347.56;10488239;28;20477;-79
2024/03/08 16:37:14;;;;;;;5.30;2.97;;;;;;;15.83;95.84;101346.66;10454273;28;20052;-78
2024/03/08 16:42:55;;;;;;;4.90;3.17;;;;;;;15.60;96.63;101335.94;10501073;28;20393;-78
2024/03/08 16:48:18;;;;;;;8.90;6.28;;;;;;;15.37;99.81;101345.53;10487986;28;20056;-78
2024/03/08 16:53:41;;;;;;;49.78;29.50;;;;;;;15.21;100.00;101343.69;10489884;28;20059;-78
2024/03/08 16:59:10;;;;;;;12.68;9.63;;;;;;;15.16;100.00;101344.53;10459418;28;20096;-79
2024/03/08 17:04:32;;;;;;;10.38;9.30;;;;;;;15.26;100.00;101341.94;10476001;28;20071;-80
2024/03/08 17:09:57;;;;;;;12.25;10.00;;;;;;;15.40;100.00;101345.56;10497398;28;20058;-78
2024/03/08 17:15:22;;;;;;;11.68;9.05;;;;;;;15.72;100.00;101353.72;10489179;28;20044;-80
2024/03/08 17:20:45;;;;;;;7.07;3.75;;;;;;;15.75;100.00;101357.25;10507988;28;20132;-79
2024/03/08 17:26:08;;;;;;;4.32;1.83;;;;;;;15.47;100.00;101364.22;10482277;28;20056;-79
2024/03/08 17:31:32;;;;;;;9.40;2.10;;;;;;;15.33;100.00;101378.31;10497557;28;20040;-80
2024/03/08 17:36:57;;;;;;;6.85;4.50;;;;;;;15.57;100.00;101377.59;10506622;28;20044;-81
2024/03/08 17:42:20;;;;;;;5.65;3.72;;;;;;;15.53;100.00;101385.56;10476274;28;20053;-78
2024/03/08 17:47:45;;;;;;;8.00;3.95;;;;;;;15.09;100.00;101395.03;10459043;28;20056;-79
2024/03/08 17:53:09;;;;;;;5.20;2.17;;;;;;;14.51;100.00;101393.63;10496365;28;20052;-81
2024/03/08 17:58:33;;;;;;;11.10;4.85;;;;;;;14.23;100.00;101405.72;10489760;28;20059;-79
2024/03/08 18:04:00;;;;;;;9.40;3.15;;;;;;;14.28;100.00;101404.88;10468555;28;20075;-80
2024/03/08 18:09:24;;;;;;;5.80;2.50;;;;;;;14.23;100.00;101400.41;10453968;28;20464;-80
2024/03/08 18:14:47;;;;;;;5.07;1.98;;;;;;;14.22;100.00;101407.47;10452728;28;20159;-79
2024/03/08 18:20:14;;;;;;;8.55;4.60;;;;;;;14.31;100.00;101406.66;10482319;28;20057;-80
2024/03/08 18:25:37;;;;;;;46.85;20.42;;;;;;;14.29;100.00;101406.66;10487123;28;20052;-80
2024/03/08 18:31:00;;;;;;;12.05;7.13;;;;;;;14.26;100.00;101403.06;10478230;28;20063;-80
2024/03/08 18:36:24;;;;;;;9.43;5.15;;;;;;;14.05;100.00;101406.38;10516683;28;20064;-81
2024/03/08 18:41:47;;;;;;;9.32;6.45;;;;;;;13.95;100.00;101407.16;10486367;28;20056;-80
2024/03/08 18:47:09;;;;;;;7.57;4.38;;;;;;;13.96;100.00;101414.25;10512673;28;20049;-80
2024/03/08 18:52:33;;;;;;;7.45;5.20;;;;;;;13.90;100.00;101411.50;10513055;28;20446;-79
2024/03/08 18:58:00;;;;;;;3.95;3.03;;;;;;;13.79;100.00;101419.31;10486227;28;20050;-79
2024/03/08 19:03:23;;;;;;;6.40;2.65;;;;;;;13.76;100.00;101432.56;10485532;28;20499;-81
2024/03/08 19:08:48;;;;;;;5.45;4.82;;;;;;;13.57;100.00;101415.50;10498072;28;20102;-79
2024/03/08 19:14:10;;;;;;;9.68;8.65;;;;;;;13.39;100.00;101432.94;10484116;28;20051;-79
2024/03/08 19:19:34;;;;;;;8.20;6.80;;;;;;;13.27;100.00;101430.97;10498680;28;20132;-81
2024/03/08 19:24:58;;;;;;;6.60;5.10;;;;;;;13.34;100.00;101430.19;10512023;27;20090;-78
2024/03/08 19:30:27;;;;;;;8.10;6.20;;;;;;;13.28;100.00;101427.44;10450430;28;20048;-80
2024/03/08 19:35:49;;;;;;;12.40;10.95;;;;;;;13.16;100.00;101432.56;10500841;28;20057;-80
2024/03/08 19:41:13;;;;;;;4.38;3.55;;;;;;;13.14;100.00;101434.28;10496226;28;20049;-79
2024/03/08 19:46:40;;;;;;;8.77;5.65;;;;;;;13.07;100.00;101438.56;10491016;28;20055;-80
2024/03/08 19:52:03;;;;;;;4.38;2.80;;;;;;;12.98;100.00;101440.19;10481704;28;20145;-78
2024/03/08 19:57:29;;;;;;;5.03;2.70;;;;;;;13.03;100.00;101439.41;10493350;28;20048;-78
2024/03/08 20:02:54;;;;;;;3.63;2.40;;;;;;;12.89;100.00;101447.97;10516711;28;20510;-78
2024/03/08 20:08:18;;;;;;;6.60;3.70;;;;;;;12.76;100.00;101446.88;10495397;28;20048;-79
2024/03/08 20:13:45;;;;;;;4.25;1.98;;;;;;;12.64;100.00;101450.19;10493164;28;20059;-78
2024/03/08 20:19:09;;;;;;;3.60;2.20;;;;;;;12.54;100.00;101456.16;10457327;28;20132;-79
2024/03/08 20:24:32;;;;;;;4.35;2.53;;;;;;;12.61;100.00;101459.81;10499734;28;20084;-79
2024/03/08 20:29:56;;;;;;;4.43;2.17;;;;;;;12.52;100.00;101459.69;10491935;28;20055;-79
2024/03/08 20:35:20;;;;;;;5.45;1.90;;;;;;;12.51;100.00;101458.78;10489566;28;20052;-79
2024/03/08 20:40:46;;;;;;;10.10;9.15;;;;;;;12.38;100.00;101468.25;10483471;28;20048;-77
2024/03/08 20:46:11;;;;;;;6.90;5.32;;;;;;;12.46;100.00;101471.06;10503310;28;20126;-79
2024/03/08 20:51:35;;;;;;;5.18;4.63;;;;;;;12.64;100.00;101474.03;10478833;28;20118;-79
2024/03/08 20:56:57;;;;;;;5.40;2.95;;;;;;;12.94;100.00;101467.47;10491044;28;20093;-79
2024/03/08 21:02:22;;;;;;;6.57;3.78;;;;;;;13.05;100.00;101463.28;10469049;28;20052;-79
2024/03/08 21:07:44;;;;;;;6.15;4.85;;;;;;;13.08;100.00;101461.56;10493697;28;20048;-79
2024/03/08 21:13:10;;;;;;;9.70;6.68;;;;;;;13.09;100.00;101457.16;10476559;28;20611;-79
2024/03/08 21:18:36;;;;;;;6.38;3.78;;;;;;;12.87;100.00;101455.88;10519054;28;20044;-79
2024/03/08 21:23:59;;;;;;;4.78;1.85;;;;;;;12.49;100.00;101462.25;10475415;28;20052;-78
2024/03/08 21:29:22;;;;;;;3.30;1.73;;;;;;;12.29;100.00;101462.75;10489446;28;20063;-78
2024/03/08 21:34:45;;;;;;;4.68;2.15;;;;;;;12.03;100.00;101466.63;10476562;28;20123;-79
2024/03/08 21:40:11;;;;;;;4.18;2.97;;;;;;;11.76;100.00;101461.63;10491309;28;20535;-78
2024/03/08 21:45:36;;;;;;;6.80;3.30;;;;;;;11.76;100.00;101458.09;10477405;28;20067;-78
2024/03/08 21:51:00;;;;;;;5.47;4.13;;;;;;;11.78;100.00;101456.38;10505663;28;20049;-79
2024/03/08 21:56:23;;;;;;;7.20;3.95;;;;;;;11.71;100.00;101472.94;10491832;28;20048;-79
2024/03/08 22:01:48;;;;;;;6.57;2.80;;;;;;;11.43;100.00;101477.59;10492220;28;20057;-78
2024/03/08 22:07:12;;;;;;;4.00;1.75;;;;;;;11.22;100.00;101477.13;10487050;28;20170;-78
2024/03/08 22:12:35;;;;;;;2.85;1.67;;;;;;;11.43;100.00;101472.31;10436179;28;20396;-78
2024/03/08 22:17:57;;;;;;;6.63;5.45;;;;;;;11.54;100.00;101472.59;10518371;28;20143;-79
2024/03/08 22:23:22;;;;;;;13.60;12.13;;;;;;;11.41;100.00;101479.34;10490353;28;20138;-78
2024/03/08 22:28:46;;;;;;;10.55;9.55;;;;;;;11.52;100.00;101475.19;10476817;28;20056;-79
2024/03/08 22:34:10;;;;;;;3.67;1.80;;;;;;;11.13;100.00;101476.88;10518934;28;20047;-78
2024/03/08 22:39:34;;;;;;;4.65;1.95;;;;;;;10.95;100.00;101482.59;10513174;28;20052;-79
2024/03/08 22:44:58;;;;;;;4.05;1.45;;;;;;;10.82;100.00;101464.66;10490078;28;20044;-79
2024/03/08 22:50:24;;;;;;;6.63;3.58;;;;;;;10.86;100.00;101471.78;10476335;28;20102;-79
2024/03/08 22:55:48;;;;;;;4.25;2.22;;;;;;;10.74;100.00;101472.38;10493832;28;20036;-78
2024/03/08 23:01:15;;;;;;;3.90;1.80;;;;;;;10.79;100.00;101457.53;10489113;28;20144;-79
2024/03/08 23:06:38;;;;;;;5.10;2.42;;;;;;;11.04;100.00;101472.25;10508883;28;20033;-79
2024/03/08 23:12:02;;;;;;;5.57;3.58;;;;;;;11.02;100.00;101467.81;10475367;28;20047;-78
2024/03/08 23:17:24;;;;;;;10.05;6.25;;;;;;;11.03;100.00;101451.06;10453081;28;20048;-79
2024/03/08 23:22:49;;;;;;;6.63;3.90;;;;;;;11.07;100.00;101451.19;10480764;28;20056;-79
2024/03/08 23:28:13;;;;;;;5.97;3.83;;;;;;;11.19;100.00;101447.94;10482433;28;20480;-79
2024/03/08 23:33:36;;;;;;;2.88;1.90;;;;;;;11.14;100.00;101447.84;10495756;28;20068;-79
2024/03/08 23:38:59;;;;;;;3.13;2.22;;;;;;;11.27;100.00;101448.13;10509780;28;20076;-80
2024/03/08 23:44:23;;;;;;;4.88;1.85;;;;;;;11.52;100.00;101445.19;10495055;28;20056;-78
2024/03/08 23:49:46;;;;;;;5.03;1.98;;;;;;;11.93;100.00;101438.22;10480342;28;20053;-78
2024/03/08 23:55:12;;;;;;;1.48;1.17;;;;;;;12.00;100.00;101442.78;10467959;28;20087;-79
